sensor_id;sensor_type;location;lat;lon;timestamp;pressure;altitude;pressure_sealevel;temperature;humidity
50349;BME280;36250;48.740;22.174;2022-11-18T00:00:44;98957.72;;;3.75;100.00
50349;BME280;36250;48.740;22.174;2022-11-18T00:03:09;98953.56;;;3.66;100.00
50349;BME280;36250;48.740;22.174;2022-11-18T00:05:35;98951.63;;;3.60;100.00
50349;BME280;36250;48.740;22.174;2022-11-18T00:08:00;98963.91;;;3.59;100.00
50349;BME280;36250;48.740;22.174;2022-11-18T00:10:25;98959.72;;;3.50;100.00
50349;BME280;36250;48.740;22.174;2022-11-18T00:12:50;98961.53;;;3.50;100.00
50349;BME280;36250;48.740;22.174;2022-11-18T00:15:34;98945.13;;;3.56;100.00
50349;BME280;36250;48.740;22.174;2022-11-18T00:17:59;98938.91;;;3.57;100.00
50349;BME280;36250;48.740;22.174;2022-11-18T00:20:25;98936.91;;;3.59;100.00
50349;BME280;36250;48.740;22.174;2022-11-18T00:22:50;98940.19;;;3.61;100.00
50349;BME280;36250;48.740;22.174;2022-11-18T00:25:15;98936.72;;;3.60;100.00
50349;BME280;36250;48.740;22.174;2022-11-18T00:27:41;98937.28;;;3.56;100.00
50349;BME280;36250;48.740;22.174;2022-11-18T00:30:07;98942.88;;;3.53;100.00
50349;BME280;36250;48.740;22.174;2022-11-18T00:32:32;98944.50;;;3.54;100.00
50349;BME280;36250;48.740;22.174;2022-11-18T00:34:57;98943.38;;;3.48;100.00
50349;BME280;36250;48.740;22.174;2022-11-18T00:37:23;98949.44;;;3.48;100.00
50349;BME280;36250;48.740;22.174;2022-11-18T00:39:48;98946.47;;;3.52;100.00
50349;BME280;36250;48.740;22.174;2022-11-18T00:42:13;98943.50;;;3.55;100.00
50349;BME280;36250;48.740;22.174;2022-11-18T00:44:57;98936.44;;;3.55;100.00
50349;BME280;36250;48.740;22.174;2022-11-18T00:47:23;98936.63;;;3.54;100.00
50349;BME280;36250;48.740;22.174;2022-11-18T00:49:48;98940.88;;;3.55;100.00
50349;BME280;36250;48.740;22.174;2022-11-18T00:52:13;98939.63;;;3.51;100.00
50349;BME280;36250;48.740;22.174;2022-11-18T00:54:38;98944.50;;;3.54;100.00
50349;BME280;36250;48.740;22.174;2022-11-18T00:57:04;98941.88;;;3.54;100.00
50349;BME280;36250;48.740;22.174;2022-11-18T00:59:29;98937.00;;;3.51;100.00
50349;BME280;36250;48.740;22.174;2022-11-18T01:01:54;98934.38;;;3.51;100.00
50349;BME280;36250;48.740;22.174;2022-11-18T01:04:20;98936.81;;;3.52;100.00
50349;BME280;36250;48.740;22.174;2022-11-18T01:06:45;98933.38;;;3.52;100.00
50349;BME280;36250;48.740;22.174;2022-11-18T01:09:11;98928.78;;;3.54;100.00
50349;BME280;36250;48.740;22.174;2022-11-18T01:11:36;98921.09;;;3.52;100.00
50349;BME280;36250;48.740;22.174;2022-11-18T01:14:23;98908.84;;;3.53;100.00
50349;BME280;36250;48.740;22.174;2022-11-18T01:16:49;98910.09;;;3.57;100.00
50349;BME280;36250;48.740;22.174;2022-11-18T01:19:16;98903.41;;;3.54;100.00
50349;BME280;36250;48.740;22.174;2022-11-18T01:21:42;98903.41;;;3.54;100.00
50349;BME280;36250;48.740;22.174;2022-11-18T01:24:07;98902.97;;;3.51;100.00
50349;BME280;36250;48.740;22.174;2022-11-18T01:26:32;98907.19;;;3.52;100.00
50349;BME280;36250;48.740;22.174;2022-11-18T01:28:58;98909.22;;;3.41;100.00
50349;BME280;36250;48.740;22.174;2022-11-18T01:31:23;98914.38;;;3.35;100.00
50349;BME280;36250;48.740;22.174;2022-11-18T01:33:48;98905.88;;;3.32;100.00
50349;BME280;36250;48.740;22.174;2022-11-18T01:36:24;98911.47;;;3.29;100.00
50349;BME280;36250;48.740;22.174;2022-11-18T01:38:51;98911.13;;;3.32;100.00
50349;BME280;36250;48.740;22.174;2022-11-18T01:41:18;98905.53;;;3.36;100.00
50349;BME280;36250;48.740;22.174;2022-11-18T01:43:59;98904.00;;;3.41;100.00
50349;BME280;36250;48.740;22.174;2022-11-18T01:46:27;98905.25;;;3.45;100.00
50349;BME280;36250;48.740;22.174;2022-11-18T01:49:03;98900.44;;;3.34;100.00
50349;BME280;36250;48.740;22.174;2022-11-18T01:51:36;98901.63;;;3.31;100.00
50349;BME280;36250;48.740;22.174;2022-11-18T01:54:16;98893.31;;;3.28;100.00
50349;BME280;36250;48.740;22.174;2022-11-18T01:56:46;98890.75;;;3.19;100.00
50349;BME280;36250;48.740;22.174;2022-11-18T01:59:18;98888.78;;;3.22;100.00
50349;BME280;36250;48.740;22.174;2022-11-18T02:01:46;98890.56;;;3.21;100.00
50349;BME280;36250;48.740;22.174;2022-11-18T02:04:12;98887.03;;;3.14;100.00
50349;BME280;36250;48.740;22.174;2022-11-18T02:06:38;98881.28;;;3.18;100.00
50349;BME280;36250;48.740;22.174;2022-11-18T02:09:03;98877.31;;;3.23;100.00
50349;BME280;36250;48.740;22.174;2022-11-18T02:11:29;98879.59;;;3.26;100.00
50349;BME280;36250;48.740;22.174;2022-11-18T02:14:14;98878.25;;;3.30;100.00
50349;BME280;36250;48.740;22.174;2022-11-18T02:28:28;98866.34;;;3.42;100.00
50349;BME280;36250;48.740;22.174;2022-11-18T02:30:55;98865.47;;;3.50;100.00
50349;BME280;36250;48.740;22.174;2022-11-18T02:33:31;98869.09;;;3.49;100.00
50349;BME280;36250;48.740;22.174;2022-11-18T02:36:12;98874.78;;;3.53;100.00
50349;BME280;36250;48.740;22.174;2022-11-18T02:38:48;98881.03;;;3.52;100.00
50349;BME280;36250;48.740;22.174;2022-11-18T02:41:20;98876.94;;;3.49;100.00
50349;BME280;36250;48.740;22.174;2022-11-18T02:44:07;98877.28;;;3.46;100.00
50349;BME280;36250;48.740;22.174;2022-11-18T02:46:37;98865.84;;;3.47;100.00
50349;BME280;36250;48.740;22.174;2022-11-18T02:49:08;98871.81;;;3.56;100.00
50349;BME280;36250;48.740;22.174;2022-11-18T02:51:35;98868.66;;;3.60;100.00
50349;BME280;36250;48.740;22.174;2022-11-18T02:54:05;98870.47;;;3.60;100.00
50349;BME280;36250;48.740;22.174;2022-11-18T02:56:33;98863.97;;;3.56;100.00
50349;BME280;36250;48.740;22.174;2022-11-18T02:58:59;98856.28;;;3.54;100.00
50349;BME280;36250;48.740;22.174;2022-11-18T03:01:28;98848.25;;;3.56;100.00
50349;BME280;36250;48.740;22.174;2022-11-18T03:03:55;98855.47;;;3.54;100.00
50349;BME280;36250;48.740;22.174;2022-11-18T03:06:34;98858.25;;;3.52;100.00
50349;BME280;36250;48.740;22.174;2022-11-18T03:11:43;98864.47;;;3.51;100.00
50349;BME280;36250;48.740;22.174;2022-11-18T03:14:22;98848.34;;;3.47;100.00
50349;BME280;36250;48.740;22.174;2022-11-18T03:17:07;98848.50;;;3.46;100.00
50349;BME280;36250;48.740;22.174;2022-11-18T03:19:43;98843.72;;;3.50;100.00
50349;BME280;36250;48.740;22.174;2022-11-18T03:22:19;98843.19;;;3.54;100.00
50349;BME280;36250;48.740;22.174;2022-11-18T03:24:54;98839.41;;;3.57;100.00
50349;BME280;36250;48.740;22.174;2022-11-18T03:27:29;98825.31;;;3.58;100.00
50349;BME280;36250;48.740;22.174;2022-11-18T03:30:02;98827.03;;;3.51;100.00
50349;BME280;36250;48.740;22.174;2022-11-18T03:32:30;98838.50;;;3.50;100.00
50349;BME280;36250;48.740;22.174;2022-11-18T03:35:08;98837.41;;;3.44;100.00
50349;BME280;36250;48.740;22.174;2022-11-18T03:37:34;98839.81;;;3.45;100.00
50349;BME280;36250;48.740;22.174;2022-11-18T03:40:07;98846.31;;;3.35;100.00
50349;BME280;36250;48.740;22.174;2022-11-18T03:42:37;98846.66;;;3.31;100.00
50349;BME280;36250;48.740;22.174;2022-11-18T03:45:09;98853.13;;;3.21;100.00
50349;BME280;36250;48.740;22.174;2022-11-18T03:47:40;98853.19;;;3.12;100.00
50349;BME280;36250;48.740;22.174;2022-11-18T03:50:11;98845.72;;;3.09;100.00
50349;BME280;36250;48.740;22.174;2022-11-18T03:52:38;98842.31;;;3.00;100.00
50349;BME280;36250;48.740;22.174;2022-11-18T03:55:10;98843.13;;;3.01;100.00
50349;BME280;36250;48.740;22.174;2022-11-18T03:57:52;98831.00;;;3.08;100.00
50349;BME280;36250;48.740;22.174;2022-11-18T04:00:20;98829.94;;;3.17;100.00
50349;BME280;36250;48.740;22.174;2022-11-18T04:02:48;98826.59;;;3.24;100.00
50349;BME280;36250;48.740;22.174;2022-11-18T04:05:15;98824.09;;;3.30;100.00
50349;BME280;36250;48.740;22.174;2022-11-18T04:07:56;98823.56;;;3.35;100.00
50349;BME280;36250;48.740;22.174;2022-11-18T04:10:44;98830.63;;;3.35;100.00
50349;BME280;36250;48.740;22.174;2022-11-18T04:13:23;98829.34;;;3.30;100.00
50349;BME280;36250;48.740;22.174;2022-11-18T04:15:49;98825.38;;;3.35;100.00
50349;BME280;36250;48.740;22.174;2022-11-18T04:18:15;98829.16;;;3.32;100.00
50349;BME280;36250;48.740;22.174;2022-11-18T04:20:40;98835.72;;;3.28;100.00
50349;BME280;36250;48.740;22.174;2022-11-18T04:23:06;98822.47;;;3.29;100.00
50349;BME280;36250;48.740;22.174;2022-11-18T04:25:32;98824.47;;;3.27;100.00
50349;BME280;36250;48.740;22.174;2022-11-18T04:27:58;98815.78;;;3.27;100.00
50349;BME280;36250;48.740;22.174;2022-11-18T04:30:23;98814.63;;;3.29;100.00
50349;BME280;36250;48.740;22.174;2022-11-18T04:32:49;98806.59;;;3.31;100.00
50349;BME280;36250;48.740;22.174;2022-11-18T04:35:14;98812.28;;;3.35;100.00
50349;BME280;36250;48.740;22.174;2022-11-18T04:37:40;98805.34;;;3.42;100.00
50349;BME280;36250;48.740;22.174;2022-11-18T04:40:05;98805.78;;;3.45;100.00
50349;BME280;36250;48.740;22.174;2022-11-18T04:42:31;98804.47;;;3.50;100.00
50349;BME280;36250;48.740;22.174;2022-11-18T04:44:56;98818.97;;;3.52;100.00
50349;BME280;36250;48.740;22.174;2022-11-18T04:47:22;98806.84;;;3.36;100.00
50349;BME280;36250;48.740;22.174;2022-11-18T04:49:48;98813.53;;;3.24;100.00
50349;BME280;36250;48.740;22.174;2022-11-18T04:52:13;98823.63;;;3.27;100.00
50349;BME280;36250;48.740;22.174;2022-11-18T04:54:39;98823.34;;;3.22;100.00
50349;BME280;36250;48.740;22.174;2022-11-18T04:57:04;98819.75;;;3.23;100.00
50349;BME280;36250;48.740;22.174;2022-11-18T04:59:29;98823.94;;;3.09;100.00
50349;BME280;36250;48.740;22.174;2022-11-18T05:01:56;98821.56;;;2.99;100.00
50349;BME280;36250;48.740;22.174;2022-11-18T05:04:23;98820.41;;;3.01;100.00
50349;BME280;36250;48.740;22.174;2022-11-18T05:06:50;98824.53;;;2.96;100.00
50349;BME280;36250;48.740;22.174;2022-11-18T05:09:16;98827.50;;;2.93;100.00
50349;BME280;36250;48.740;22.174;2022-11-18T05:11:42;98821.34;;;2.85;100.00
50349;BME280;36250;48.740;22.174;2022-11-18T05:14:27;98825.75;;;2.85;100.00
50349;BME280;36250;48.740;22.174;2022-11-18T05:16:53;98816.25;;;2.92;100.00
50349;BME280;36250;48.740;22.174;2022-11-18T05:19:19;98819.94;;;2.98;100.00
50349;BME280;36250;48.740;22.174;2022-11-18T05:21:44;98817.44;;;3.04;100.00
50349;BME280;36250;48.740;22.174;2022-11-18T05:24:09;98813.25;;;3.18;100.00
50349;BME280;36250;48.740;22.174;2022-11-18T05:26:35;98811.72;;;3.24;100.00
50349;BME280;36250;48.740;22.174;2022-11-18T05:29:00;98814.63;;;3.29;100.00
50349;BME280;36250;48.740;22.174;2022-11-18T05:31:25;98809.66;;;3.35;100.00
50349;BME280;36250;48.740;22.174;2022-11-18T05:33:51;98826.66;;;3.39;100.00
50349;BME280;36250;48.740;22.174;2022-11-18T05:36:18;98823.84;;;3.40;100.00
50349;BME280;36250;48.740;22.174;2022-11-18T05:38:44;98829.44;;;3.37;100.00
50349;BME280;36250;48.740;22.174;2022-11-18T05:41:10;98827.88;;;3.28;100.00
50349;BME280;36250;48.740;22.174;2022-11-18T05:43:55;98831.75;;;3.32;100.00
50349;BME280;36250;48.740;22.174;2022-11-18T05:46:21;98837.47;;;3.36;100.00
50349;BME280;36250;48.740;22.174;2022-11-18T05:48:46;98836.13;;;3.40;100.00
50349;BME280;36250;48.740;22.174;2022-11-18T05:51:11;98835.94;;;3.41;100.00
50349;BME280;36250;48.740;22.174;2022-11-18T05:53:37;98843.63;;;3.43;100.00
50349;BME280;36250;48.740;22.174;2022-11-18T05:56:24;98836.03;;;3.48;100.00
50349;BME280;36250;48.740;22.174;2022-11-18T05:58:52;98839.28;;;3.50;100.00
50349;BME280;36250;48.740;22.174;2022-11-18T06:01:21;98844.38;;;3.52;100.00
50349;BME280;36250;48.740;22.174;2022-11-18T06:03:48;98844.06;;;3.46;100.00
50349;BME280;36250;48.740;22.174;2022-11-18T06:06:16;98844.06;;;3.31;100.00
50349;BME280;36250;48.740;22.174;2022-11-18T06:08:56;98842.94;;;3.26;100.00
50349;BME280;36250;48.740;22.174;2022-11-18T06:11:22;98843.66;;;3.19;100.00
50349;BME280;36250;48.740;22.174;2022-11-18T06:13:54;98855.75;;;3.21;100.00
50349;BME280;36250;48.740;22.174;2022-11-18T06:16:24;98846.00;;;3.14;100.00
50349;BME280;36250;48.740;22.174;2022-11-18T06:18:51;98857.59;;;3.12;100.00
50349;BME280;36250;48.740;22.174;2022-11-18T06:21:16;98853.19;;;3.12;100.00
50349;BME280;36250;48.740;22.174;2022-11-18T06:23:42;98865.44;;;3.12;100.00
50349;BME280;36250;48.740;22.174;2022-11-18T06:26:08;98867.44;;;3.10;100.00
50349;BME280;36250;48.740;22.174;2022-11-18T06:28:34;98867.78;;;3.07;100.00
50349;BME280;36250;48.740;22.174;2022-11-18T06:31:00;98876.50;;;2.99;100.00
50349;BME280;36250;48.740;22.174;2022-11-18T06:33:25;98866.66;;;3.01;100.00
50349;BME280;36250;48.740;22.174;2022-11-18T06:35:51;98861.75;;;3.06;100.00
50349;BME280;36250;48.740;22.174;2022-11-18T06:38:16;98867.00;;;3.06;100.00
50349;BME280;36250;48.740;22.174;2022-11-18T06:40:41;98855.34;;;3.09;100.00
50349;BME280;36250;48.740;22.174;2022-11-18T06:43:10;98851.16;;;3.23;100.00
50349;BME280;36250;48.740;22.174;2022-11-18T06:45:58;98842.88;;;3.34;100.00
50349;BME280;36250;48.740;22.174;2022-11-18T06:48:42;98838.91;;;3.38;100.00
50349;BME280;36250;48.740;22.174;2022-11-18T06:51:07;98831.34;;;3.43;100.00
50349;BME280;36250;48.740;22.174;2022-11-18T06:53:33;98831.44;;;3.50;100.00
50349;BME280;36250;48.740;22.174;2022-11-18T06:56:07;98833.25;;;3.50;100.00
50349;BME280;36250;48.740;22.174;2022-11-18T06:58:33;98829.28;;;3.54;100.00
50349;BME280;36250;48.740;22.174;2022-11-18T07:01:11;98824.13;;;3.60;100.00
50349;BME280;36250;48.740;22.174;2022-11-18T07:03:41;98814.13;;;3.64;100.00
50349;BME280;36250;48.740;22.174;2022-11-18T07:06:08;98813.13;;;3.65;100.00
50349;BME280;36250;48.740;22.174;2022-11-18T07:08:38;98804.28;;;3.66;100.00
50349;BME280;36250;48.740;22.174;2022-11-18T07:11:05;98806.72;;;3.68;100.00
50349;BME280;36250;48.740;22.174;2022-11-18T07:13:31;98810.16;;;3.68;100.00
50349;BME280;36250;48.740;22.174;2022-11-18T07:16:06;98802.28;;;3.68;100.00
50349;BME280;36250;48.740;22.174;2022-11-18T07:18:33;98804.91;;;3.68;100.00
50349;BME280;36250;48.740;22.174;2022-11-18T07:21:03;98808.00;;;3.72;100.00
50349;BME280;36250;48.740;22.174;2022-11-18T07:23:31;98808.63;;;3.74;100.00
50349;BME280;36250;48.740;22.174;2022-11-18T07:25:56;98798.22;;;3.81;100.00
50349;BME280;36250;48.740;22.174;2022-11-18T07:28:22;98793.44;;;3.84;100.00
50349;BME280;36250;48.740;22.174;2022-11-18T07:30:48;98792.91;;;3.89;100.00
50349;BME280;36250;48.740;22.174;2022-11-18T07:33:13;98788.56;;;3.96;100.00
50349;BME280;36250;48.740;22.174;2022-11-18T07:35:38;98799.47;;;4.00;100.00
50349;BME280;36250;48.740;22.174;2022-11-18T07:38:03;98798.75;;;4.06;100.00
50349;BME280;36250;48.740;22.174;2022-11-18T07:40:29;98808.53;;;4.12;100.00
50349;BME280;36250;48.740;22.174;2022-11-18T07:42:54;98807.31;;;4.15;100.00
50349;BME280;36250;48.740;22.174;2022-11-18T07:45:19;98811.41;;;4.17;100.00
50349;BME280;36250;48.740;22.174;2022-11-18T07:47:45;98810.47;;;4.25;100.00
50349;BME280;36250;48.740;22.174;2022-11-18T07:50:10;98789.59;;;4.32;100.00
50349;BME280;36250;48.740;22.174;2022-11-18T07:52:35;98801.69;;;4.33;100.00
50349;BME280;36250;48.740;22.174;2022-11-18T07:55:00;98798.69;;;4.36;100.00
50349;BME280;36250;48.740;22.174;2022-11-18T07:57:26;98813.25;;;4.39;100.00
50349;BME280;36250;48.740;22.174;2022-11-18T07:59:51;98819.19;;;4.47;100.00
50349;BME280;36250;48.740;22.174;2022-11-18T08:02:16;98820.88;;;4.55;100.00
50349;BME280;36250;48.740;22.174;2022-11-18T08:04:42;98827.38;;;4.59;100.00
50349;BME280;36250;48.740;22.174;2022-11-18T08:07:10;98830.22;;;4.58;100.00
50349;BME280;36250;48.740;22.174;2022-11-18T08:09:35;98835.63;;;4.56;100.00
50349;BME280;36250;48.740;22.174;2022-11-18T08:12:01;98842.44;;;4.51;100.00
50349;BME280;36250;48.740;22.174;2022-11-18T08:14:26;98850.31;;;4.51;100.00
50349;BME280;36250;48.740;22.174;2022-11-18T08:16:54;98853.22;;;4.41;100.00
50349;BME280;36250;48.740;22.174;2022-11-18T08:19:19;98851.50;;;4.33;100.00
50349;BME280;36250;48.740;22.174;2022-11-18T08:21:45;98843.22;;;4.29;100.00
50349;BME280;36250;48.740;22.174;2022-11-18T08:24:10;98842.84;;;4.32;100.00
50349;BME280;36250;48.740;22.174;2022-11-18T08:26:35;98842.63;;;4.34;100.00
50349;BME280;36250;48.740;22.174;2022-11-18T08:29:01;98833.88;;;4.42;100.00
50349;BME280;36250;48.740;22.174;2022-11-18T08:31:28;98842.44;;;4.51;100.00
50349;BME280;36250;48.740;22.174;2022-11-18T08:33:59;98827.50;;;4.51;100.00
50349;BME280;36250;48.740;22.174;2022-11-18T08:36:26;98826.75;;;4.57;100.00
50349;BME280;36250;48.740;22.174;2022-11-18T08:38:54;98818.84;;;4.51;100.00
50349;BME280;36250;48.740;22.174;2022-11-18T08:41:36;98805.28;;;4.47;100.00
50349;BME280;36250;48.740;22.174;2022-11-18T08:44:03;98804.09;;;4.49;100.00
50349;BME280;36250;48.740;22.174;2022-11-18T08:46:28;98795.91;;;4.59;100.00
50349;BME280;36250;48.740;22.174;2022-11-18T08:48:55;98796.00;;;4.66;100.00
50349;BME280;36250;48.740;22.174;2022-11-18T08:51:20;98787.91;;;4.68;100.00
50349;BME280;36250;48.740;22.174;2022-11-18T08:53:45;98791.53;;;4.67;100.00
50349;BME280;36250;48.740;22.174;2022-11-18T08:56:14;98785.88;;;4.63;100.00
50349;BME280;36250;48.740;22.174;2022-11-18T08:58:40;98789.88;;;4.59;100.00
50349;BME280;36250;48.740;22.174;2022-11-18T09:01:06;98786.25;;;4.60;100.00
50349;BME280;36250;48.740;22.174;2022-11-18T09:03:32;98784.69;;;4.66;100.00
50349;BME280;36250;48.740;22.174;2022-11-18T09:06:12;98786.81;;;4.77;100.00
50349;BME280;36250;48.740;22.174;2022-11-18T09:08:38;98792.13;;;4.84;100.00
50349;BME280;36250;48.740;22.174;2022-11-18T09:11:18;98787.00;;;4.97;100.00
50349;BME280;36250;48.740;22.174;2022-11-18T09:13:44;98777.13;;;4.99;100.00
50349;BME280;36250;48.740;22.174;2022-11-18T09:16:09;98776.50;;;4.97;100.00
50349;BME280;36250;48.740;22.174;2022-11-18T09:18:35;98772.66;;;5.00;100.00
50349;BME280;36250;48.740;22.174;2022-11-18T09:21:07;98766.03;;;5.04;100.00
50349;BME280;36250;48.740;22.174;2022-11-18T09:23:34;98770.97;;;5.14;100.00
50349;BME280;36250;48.740;22.174;2022-11-18T09:26:05;98773.59;;;5.14;100.00
50349;BME280;36250;48.740;22.174;2022-11-18T09:28:31;98778.38;;;5.03;100.00
50349;BME280;36250;48.740;22.174;2022-11-18T09:30:56;98781.94;;;4.96;100.00
50349;BME280;36250;48.740;22.174;2022-11-18T09:33:22;98784.31;;;4.90;100.00
50349;BME280;36250;48.740;22.174;2022-11-18T09:35:48;98767.78;;;4.90;100.00
50349;BME280;36250;48.740;22.174;2022-11-18T09:38:13;98770.00;;;4.93;100.00
50349;BME280;36250;48.740;22.174;2022-11-18T09:40:48;98769.63;;;4.96;100.00
50349;BME280;36250;48.740;22.174;2022-11-18T09:43:22;98770.81;;;4.93;100.00
50349;BME280;36250;48.740;22.174;2022-11-18T09:45:53;98760.38;;;4.78;100.00
50349;BME280;36250;48.740;22.174;2022-11-18T09:48:21;98765.38;;;4.73;100.00
50349;BME280;36250;48.740;22.174;2022-11-18T09:51:10;98760.84;;;4.82;100.00
50349;BME280;36250;48.740;22.174;2022-11-18T09:53:40;98762.56;;;4.97;100.00
50349;BME280;36250;48.740;22.174;2022-11-18T09:56:13;98763.88;;;5.07;100.00
50349;BME280;36250;48.740;22.174;2022-11-18T09:58:39;98770.34;;;5.12;100.00
50349;BME280;36250;48.740;22.174;2022-11-18T10:01:11;98780.69;;;5.20;100.00
50349;BME280;36250;48.740;22.174;2022-11-18T10:03:37;98793.03;;;5.19;100.00
50349;BME280;36250;48.740;22.174;2022-11-18T10:11:21;98777.38;;;4.83;100.00
50349;BME280;36250;48.740;22.174;2022-11-18T10:13:50;98772.50;;;4.79;100.00
50349;BME280;36250;48.740;22.174;2022-11-18T10:19:07;98776.44;;;4.69;100.00
50349;BME280;36250;48.740;22.174;2022-11-18T10:22:09;98776.94;;;4.57;100.00
50349;BME280;36250;48.740;22.174;2022-11-18T10:24:44;98774.06;;;4.52;100.00
50349;BME280;36250;48.740;22.174;2022-11-18T10:27:14;98770.31;;;4.40;100.00
50349;BME280;36250;48.740;22.174;2022-11-18T10:29:40;98758.56;;;4.35;100.00
50349;BME280;36250;48.740;22.174;2022-11-18T10:32:11;98751.34;;;4.38;100.00
50349;BME280;36250;48.740;22.174;2022-11-18T10:34:48;98756.13;;;4.34;100.00
50349;BME280;36250;48.740;22.174;2022-11-18T10:37:28;98743.91;;;4.41;100.00
50349;BME280;36250;48.740;22.174;2022-11-18T10:39:56;98744.09;;;4.40;100.00
50349;BME280;36250;48.740;22.174;2022-11-18T10:42:41;98748.09;;;4.35;100.00
50349;BME280;36250;48.740;22.174;2022-11-18T10:48:17;98762.56;;;4.31;100.00
50349;BME280;36250;48.740;22.174;2022-11-18T10:50:47;98757.31;;;4.31;100.00
50349;BME280;36250;48.740;22.174;2022-11-18T10:53:31;98752.72;;;4.33;100.00
50349;BME280;36250;48.740;22.174;2022-11-18T10:56:03;98756.03;;;4.27;100.00
50349;BME280;36250;48.740;22.174;2022-11-18T10:58:30;98752.19;;;4.23;100.00
50349;BME280;36250;48.740;22.174;2022-11-18T11:01:23;98751.13;;;4.17;100.00
50349;BME280;36250;48.740;22.174;2022-11-18T11:11:30;98759.09;;;4.09;100.00
50349;BME280;36250;48.740;22.174;2022-11-18T11:14:18;98752.41;;;4.06;100.00
50349;BME280;36250;48.740;22.174;2022-11-18T11:16:55;98753.41;;;4.05;100.00
50349;BME280;36250;48.740;22.174;2022-11-18T11:19:24;98756.03;;;4.05;100.00
50349;BME280;36250;48.740;22.174;2022-11-18T11:21:52;98752.22;;;4.08;100.00
50349;BME280;36250;48.740;22.174;2022-11-18T11:24:17;98749.66;;;4.15;100.00
50349;BME280;36250;48.740;22.174;2022-11-18T11:26:53;98752.19;;;4.23;100.00
50349;BME280;36250;48.740;22.174;2022-11-18T11:35:20;98726.34;;;4.20;100.00
50349;BME280;36250;48.740;22.174;2022-11-18T11:37:52;98727.72;;;4.16;100.00
50349;BME280;36250;48.740;22.174;2022-11-18T11:40:26;98723.53;;;4.22;100.00
50349;BME280;36250;48.740;22.174;2022-11-18T11:43:23;98721.63;;;4.30;100.00
50349;BME280;36250;48.740;22.174;2022-11-18T11:51:26;98715.81;;;4.35;100.00
50349;BME280;36250;48.740;22.174;2022-11-18T11:56:52;98717.88;;;4.40;100.00
50349;BME280;36250;48.740;22.174;2022-11-18T12:05:23;98705.53;;;4.33;100.00
50349;BME280;36250;48.740;22.174;2022-11-18T12:07:54;98724.13;;;4.39;100.00
50349;BME280;36250;48.740;22.174;2022-11-18T12:10:24;98715.88;;;4.42;100.00
50349;BME280;36250;48.740;22.174;2022-11-18T12:20:39;98721.53;;;4.45;100.00
50349;BME280;36250;48.740;22.174;2022-11-18T12:23:19;98724.38;;;4.44;100.00
50349;BME280;36250;48.740;22.174;2022-11-18T12:28:21;98724.91;;;4.39;100.00
50349;BME280;36250;48.740;22.174;2022-11-18T12:30:48;98727.22;;;4.27;100.00
50349;BME280;36250;48.740;22.174;2022-11-18T12:33:15;98728.59;;;4.23;100.00
50349;BME280;36250;48.740;22.174;2022-11-18T12:35:46;98716.84;;;4.19;100.00
50349;BME280;36250;48.740;22.174;2022-11-18T12:38:38;98727.72;;;4.16;100.00
50349;BME280;36250;48.740;22.174;2022-11-18T12:41:50;98712.94;;;4.08;100.00
50349;BME280;36250;48.740;22.174;2022-11-18T12:44:29;98712.94;;;4.08;100.00
50349;BME280;36250;48.740;22.174;2022-11-18T12:47:04;98712.28;;;4.06;100.00
50349;BME280;36250;48.740;22.174;2022-11-18T12:52:00;98721.13;;;4.05;100.00
50349;BME280;36250;48.740;22.174;2022-11-18T12:54:47;98716.50;;;4.07;100.00
50349;BME280;36250;48.740;22.174;2022-11-18T12:57:27;98717.50;;;4.06;100.00
50349;BME280;36250;48.740;22.174;2022-11-18T12:59:54;98707.84;;;4.06;100.00
50349;BME280;36250;48.740;22.174;2022-11-18T13:05:05;98708.22;;;4.03;100.00
50349;BME280;36250;48.740;22.174;2022-11-18T13:07:40;98711.84;;;4.02;100.00
50349;BME280;36250;48.740;22.174;2022-11-18T13:10:29;98704.63;;;4.04;100.00
50349;BME280;36250;48.740;22.174;2022-11-18T13:12:56;98692.13;;;4.06;100.00
50349;BME280;36250;48.740;22.174;2022-11-18T13:15:22;98692.31;;;4.05;100.00
50349;BME280;36250;48.740;22.174;2022-11-18T13:18:13;98694.75;;;4.06;100.00
50349;BME280;36250;48.740;22.174;2022-11-18T13:20:40;98693.75;;;4.08;100.00
50349;BME280;36250;48.740;22.174;2022-11-18T13:25:58;98696.88;;;4.18;100.00
50349;BME280;36250;48.740;22.174;2022-11-18T13:28:37;98703.38;;;4.22;100.00
50349;BME280;36250;48.740;22.174;2022-11-18T13:33:38;98708.63;;;4.22;100.00
50349;BME280;36250;48.740;22.174;2022-11-18T13:36:23;98701.13;;;4.19;100.00
50349;BME280;36250;48.740;22.174;2022-11-18T13:39:00;98702.75;;;4.20;100.00
50349;BME280;36250;48.740;22.174;2022-11-18T13:41:27;98709.00;;;4.19;100.00
50349;BME280;36250;48.740;22.174;2022-11-18T13:44:16;98702.13;;;4.18;100.00
50349;BME280;36250;48.740;22.174;2022-11-18T13:46:44;98702.56;;;4.22;100.00
50349;BME280;36250;48.740;22.174;2022-11-18T13:49:18;98709.19;;;4.17;100.00
50349;BME280;36250;48.740;22.174;2022-11-18T13:51:45;98704.63;;;4.04;100.00
50349;BME280;36250;48.740;22.174;2022-11-18T13:54:16;98707.88;;;3.91;100.00
50349;BME280;36250;48.740;22.174;2022-11-18T13:56:44;98711.06;;;3.87;100.00
50349;BME280;36250;48.740;22.174;2022-11-18T13:59:19;98716.66;;;3.84;100.00
50349;BME280;36250;48.740;22.174;2022-11-18T14:01:54;98710.78;;;3.82;100.00
50349;BME280;36250;48.740;22.174;2022-11-18T14:04:22;98713.78;;;3.79;100.00
50349;BME280;36250;48.740;22.174;2022-11-18T14:06:49;98711.16;;;3.79;100.00
50349;BME280;36250;48.740;22.174;2022-11-18T14:14:33;98696.91;;;3.81;100.00
50349;BME280;36250;48.740;22.174;2022-11-18T14:17:03;98689.84;;;3.82;100.00
50349;BME280;36250;48.740;22.174;2022-11-18T14:19:30;98687.22;;;3.82;100.00
50349;BME280;36250;48.740;22.174;2022-11-18T14:22:11;98692.66;;;3.80;100.00
50349;BME280;36250;48.740;22.174;2022-11-18T14:24:37;98688.41;;;3.79;100.00